<?xml version="1.0" encoding="UTF-8" standalone="no" ?>
<gpx xmlns="http://www.topografix.com/GPX/1/1" xmlns:xsi="http://www.w3.org/2001/XMLSchema-instance" xsi:schemaLocation="http://www.topografix.com/GPX/1/1 http://www.topografix.com/GPX/1/1/gpx.xsd" version="1.1" creator="VisuGPX - https://www.visugpx.com">
  <metadata>
    <name>PIBRAC La Gamasse 11 km AV</name>
  </metadata>
  <wpt lat="43.62255" lon="1.28534">
    <ele>155</ele>
    <name><![CDATA[Départ Parking]]></name>
  </wpt>
  <wpt lat="43.6226" lon="1.28506">
    <ele>155</ele>
    <name><![CDATA[Retour voiture]]></name>
  </wpt>
  <trk>
    <name><![CDATA[PIBRAC La Gamasse 11 km AV]]></name>
    <trkseg>
      <trkpt lat="43.62255" lon="1.28534">
        <ele>155</ele>
        <time>2020-03-29T14:45:19+02:00</time>
      </trkpt>
      <trkpt lat="43.62234" lon="1.28558">
        <ele>154</ele>
        <time>2020-03-29T14:45:41+02:00</time>
      </trkpt>
      <trkpt lat="43.62213" lon="1.28514">
        <ele>155</ele>
        <time>2020-03-29T14:46:12+02:00</time>
      </trkpt>
      <trkpt lat="43.62209" lon="1.28464">
        <ele>155</ele>
        <time>2020-03-29T14:46:41+02:00</time>
      </trkpt>
      <trkpt lat="43.62207" lon="1.28371">
        <ele>156</ele>
        <time>2020-03-29T14:47:36+02:00</time>
      </trkpt>
      <trkpt lat="43.62214" lon="1.28274">
        <ele>157</ele>
        <time>2020-03-29T14:48:32+02:00</time>
      </trkpt>
      <trkpt lat="43.6222" lon="1.28207">
        <ele>158</ele>
        <time>2020-03-29T14:49:11+02:00</time>
      </trkpt>
      <trkpt lat="43.62222" lon="1.28174">
        <ele>158</ele>
        <time>2020-03-29T14:49:30+02:00</time>
      </trkpt>
      <trkpt lat="43.62229" lon="1.28143">
        <ele>158</ele>
        <time>2020-03-29T14:49:49+02:00</time>
      </trkpt>
      <trkpt lat="43.62221" lon="1.28108">
        <ele>158</ele>
        <time>2020-03-29T14:50:11+02:00</time>
      </trkpt>
      <trkpt lat="43.62203" lon="1.281">
        <ele>157</ele>
        <time>2020-03-29T14:50:26+02:00</time>
      </trkpt>
      <trkpt lat="43.62185" lon="1.28084">
        <ele>157</ele>
        <time>2020-03-29T14:50:43+02:00</time>
      </trkpt>
      <trkpt lat="43.62159" lon="1.28086">
        <ele>157</ele>
        <time>2020-03-29T14:51:04+02:00</time>
      </trkpt>
      <trkpt lat="43.62131" lon="1.28088">
        <ele>158</ele>
        <time>2020-03-29T14:51:27+02:00</time>
      </trkpt>
      <trkpt lat="43.62105" lon="1.28088">
        <ele>158</ele>
        <time>2020-03-29T14:51:47+02:00</time>
      </trkpt>
      <trkpt lat="43.62086" lon="1.28104">
        <ele>159</ele>
        <time>2020-03-29T14:52:05+02:00</time>
      </trkpt>
      <trkpt lat="43.6203" lon="1.28108">
        <ele>162</ele>
        <time>2020-03-29T14:52:49+02:00</time>
      </trkpt>
      <trkpt lat="43.62022" lon="1.28038">
        <ele>162</ele>
        <time>2020-03-29T14:53:30+02:00</time>
      </trkpt>
      <trkpt lat="43.62009" lon="1.2794">
        <ele>163</ele>
        <time>2020-03-29T14:54:28+02:00</time>
      </trkpt>
      <trkpt lat="43.61999" lon="1.27853">
        <ele>163</ele>
        <time>2020-03-29T14:55:19+02:00</time>
      </trkpt>
      <trkpt lat="43.61989" lon="1.27784">
        <ele>163</ele>
        <time>2020-03-29T14:56:00+02:00</time>
      </trkpt>
      <trkpt lat="43.61988" lon="1.27764">
        <ele>163</ele>
        <time>2020-03-29T14:56:12+02:00</time>
      </trkpt>
      <trkpt lat="43.61994" lon="1.27738">
        <ele>163</ele>
        <time>2020-03-29T14:56:28+02:00</time>
      </trkpt>
      <trkpt lat="43.61997" lon="1.27703">
        <ele>163</ele>
        <time>2020-03-29T14:56:48+02:00</time>
      </trkpt>
      <trkpt lat="43.61993" lon="1.27675">
        <ele>163</ele>
        <time>2020-03-29T14:57:05+02:00</time>
      </trkpt>
      <trkpt lat="43.61981" lon="1.27668">
        <ele>164</ele>
        <time>2020-03-29T14:57:15+02:00</time>
      </trkpt>
      <trkpt lat="43.61976" lon="1.27655">
        <ele>164</ele>
        <time>2020-03-29T14:57:24+02:00</time>
      </trkpt>
      <trkpt lat="43.61971" lon="1.27625">
        <ele>164</ele>
        <time>2020-03-29T14:57:41+02:00</time>
      </trkpt>
      <trkpt lat="43.61972" lon="1.27593">
        <ele>164</ele>
        <time>2020-03-29T14:58:00+02:00</time>
      </trkpt>
      <trkpt lat="43.61975" lon="1.27566">
        <ele>164</ele>
        <time>2020-03-29T14:58:15+02:00</time>
      </trkpt>
      <trkpt lat="43.61976" lon="1.27539">
        <ele>164</ele>
        <time>2020-03-29T14:58:31+02:00</time>
      </trkpt>
      <trkpt lat="43.61974" lon="1.27518">
        <ele>164</ele>
        <time>2020-03-29T14:58:44+02:00</time>
      </trkpt>
      <trkpt lat="43.61972" lon="1.27487">
        <ele>163</ele>
        <time>2020-03-29T14:59:02+02:00</time>
      </trkpt>
      <trkpt lat="43.61969" lon="1.27465">
        <ele>163</ele>
        <time>2020-03-29T14:59:15+02:00</time>
      </trkpt>
      <trkpt lat="43.61966" lon="1.27431">
        <ele>163</ele>
        <time>2020-03-29T14:59:35+02:00</time>
      </trkpt>
      <trkpt lat="43.61961" lon="1.27398">
        <ele>163</ele>
        <time>2020-03-29T14:59:54+02:00</time>
      </trkpt>
      <trkpt lat="43.61959" lon="1.27367">
        <ele>163</ele>
        <time>2020-03-29T15:00:12+02:00</time>
      </trkpt>
      <trkpt lat="43.61956" lon="1.27337">
        <ele>163</ele>
        <time>2020-03-29T15:00:30+02:00</time>
      </trkpt>
      <trkpt lat="43.61954" lon="1.27311">
        <ele>164</ele>
        <time>2020-03-29T15:00:45+02:00</time>
      </trkpt>
      <trkpt lat="43.61954" lon="1.27284">
        <ele>164</ele>
        <time>2020-03-29T15:01:01+02:00</time>
      </trkpt>
      <trkpt lat="43.61973" lon="1.27284">
        <ele>163</ele>
        <time>2020-03-29T15:01:16+02:00</time>
      </trkpt>
      <trkpt lat="43.62009" lon="1.27283">
        <ele>162</ele>
        <time>2020-03-29T15:01:45+02:00</time>
      </trkpt>
      <trkpt lat="43.62027" lon="1.27279">
        <ele>161</ele>
        <time>2020-03-29T15:01:59+02:00</time>
      </trkpt>
      <trkpt lat="43.62046" lon="1.27282">
        <ele>160</ele>
        <time>2020-03-29T15:02:15+02:00</time>
      </trkpt>
      <trkpt lat="43.6205" lon="1.27283">
        <ele>160</ele>
        <time>2020-03-29T15:02:18+02:00</time>
      </trkpt>
      <trkpt lat="43.62063" lon="1.27292">
        <ele>160</ele>
        <time>2020-03-29T15:02:30+02:00</time>
      </trkpt>
      <trkpt lat="43.62076" lon="1.27292">
        <ele>161</ele>
        <time>2020-03-29T15:02:40+02:00</time>
      </trkpt>
      <trkpt lat="43.62087" lon="1.27292">
        <ele>161</ele>
        <time>2020-03-29T15:02:48+02:00</time>
      </trkpt>
      <trkpt lat="43.62098" lon="1.27294">
        <ele>162</ele>
        <time>2020-03-29T15:02:58+02:00</time>
      </trkpt>
      <trkpt lat="43.62108" lon="1.27293">
        <ele>162</ele>
        <time>2020-03-29T15:03:06+02:00</time>
      </trkpt>
      <trkpt lat="43.6212" lon="1.27293">
        <ele>162</ele>
        <time>2020-03-29T15:03:15+02:00</time>
      </trkpt>
      <trkpt lat="43.62128" lon="1.2729">
        <ele>163</ele>
        <time>2020-03-29T15:03:22+02:00</time>
      </trkpt>
      <trkpt lat="43.62129" lon="1.27254">
        <ele>163</ele>
        <time>2020-03-29T15:03:43+02:00</time>
      </trkpt>
      <trkpt lat="43.62131" lon="1.27211">
        <ele>164</ele>
        <time>2020-03-29T15:04:08+02:00</time>
      </trkpt>
      <trkpt lat="43.62128" lon="1.27173">
        <ele>164</ele>
        <time>2020-03-29T15:04:30+02:00</time>
      </trkpt>
      <trkpt lat="43.62118" lon="1.27145">
        <ele>163</ele>
        <time>2020-03-29T15:04:48+02:00</time>
      </trkpt>
      <trkpt lat="43.62112" lon="1.27087">
        <ele>163</ele>
        <time>2020-03-29T15:05:22+02:00</time>
      </trkpt>
      <trkpt lat="43.62094" lon="1.27007">
        <ele>163</ele>
        <time>2020-03-29T15:06:11+02:00</time>
      </trkpt>
      <trkpt lat="43.62083" lon="1.26933">
        <ele>164</ele>
        <time>2020-03-29T15:06:55+02:00</time>
      </trkpt>
      <trkpt lat="43.62065" lon="1.2684">
        <ele>164</ele>
        <time>2020-03-29T15:07:51+02:00</time>
      </trkpt>
      <trkpt lat="43.62054" lon="1.26767">
        <ele>164</ele>
        <time>2020-03-29T15:08:34+02:00</time>
      </trkpt>
      <trkpt lat="43.62042" lon="1.26701">
        <ele>165</ele>
        <time>2020-03-29T15:09:13+02:00</time>
      </trkpt>
      <trkpt lat="43.62032" lon="1.26655">
        <ele>165</ele>
        <time>2020-03-29T15:09:41+02:00</time>
      </trkpt>
      <trkpt lat="43.6202" lon="1.26548">
        <ele>165</ele>
        <time>2020-03-29T15:10:44+02:00</time>
      </trkpt>
      <trkpt lat="43.62013" lon="1.26488">
        <ele>166</ele>
        <time>2020-03-29T15:11:20+02:00</time>
      </trkpt>
      <trkpt lat="43.62001" lon="1.26416">
        <ele>166</ele>
        <time>2020-03-29T15:12:03+02:00</time>
      </trkpt>
      <trkpt lat="43.61986" lon="1.26363">
        <ele>166</ele>
        <time>2020-03-29T15:12:35+02:00</time>
      </trkpt>
      <trkpt lat="43.61981" lon="1.26315">
        <ele>166</ele>
        <time>2020-03-29T15:13:04+02:00</time>
      </trkpt>
      <trkpt lat="43.61966" lon="1.2629">
        <ele>166</ele>
        <time>2020-03-29T15:13:22+02:00</time>
      </trkpt>
      <trkpt lat="43.61947" lon="1.26303">
        <ele>165</ele>
        <time>2020-03-29T15:13:40+02:00</time>
      </trkpt>
      <trkpt lat="43.61935" lon="1.2631">
        <ele>165</ele>
        <time>2020-03-29T15:13:50+02:00</time>
      </trkpt>
      <trkpt lat="43.61933" lon="1.26253">
        <ele>165</ele>
        <time>2020-03-29T15:14:23+02:00</time>
      </trkpt>
      <trkpt lat="43.61924" lon="1.26192">
        <ele>165</ele>
        <time>2020-03-29T15:14:59+02:00</time>
      </trkpt>
      <trkpt lat="43.61923" lon="1.26162">
        <ele>165</ele>
        <time>2020-03-29T15:15:16+02:00</time>
      </trkpt>
      <trkpt lat="43.61919" lon="1.26115">
        <ele>165</ele>
        <time>2020-03-29T15:15:44+02:00</time>
      </trkpt>
      <trkpt lat="43.61918" lon="1.26079">
        <ele>165</ele>
        <time>2020-03-29T15:16:04+02:00</time>
      </trkpt>
      <trkpt lat="43.61915" lon="1.26052">
        <ele>166</ele>
        <time>2020-03-29T15:16:21+02:00</time>
      </trkpt>
      <trkpt lat="43.6191" lon="1.2602">
        <ele>167</ele>
        <time>2020-03-29T15:16:39+02:00</time>
      </trkpt>
      <trkpt lat="43.61907" lon="1.25988">
        <ele>168</ele>
        <time>2020-03-29T15:16:58+02:00</time>
      </trkpt>
      <trkpt lat="43.61901" lon="1.25961">
        <ele>168</ele>
        <time>2020-03-29T15:17:14+02:00</time>
      </trkpt>
      <trkpt lat="43.61895" lon="1.25939">
        <ele>169</ele>
        <time>2020-03-29T15:17:28+02:00</time>
      </trkpt>
      <trkpt lat="43.61884" lon="1.25906">
        <ele>169</ele>
        <time>2020-03-29T15:17:50+02:00</time>
      </trkpt>
      <trkpt lat="43.61876" lon="1.25886">
        <ele>169</ele>
        <time>2020-03-29T15:18:03+02:00</time>
      </trkpt>
      <trkpt lat="43.61865" lon="1.25863">
        <ele>169</ele>
        <time>2020-03-29T15:18:19+02:00</time>
      </trkpt>
      <trkpt lat="43.61853" lon="1.25834">
        <ele>169</ele>
        <time>2020-03-29T15:18:38+02:00</time>
      </trkpt>
      <trkpt lat="43.61843" lon="1.25813">
        <ele>169</ele>
        <time>2020-03-29T15:18:53+02:00</time>
      </trkpt>
      <trkpt lat="43.61834" lon="1.25781">
        <ele>169</ele>
        <time>2020-03-29T15:19:13+02:00</time>
      </trkpt>
      <trkpt lat="43.61849" lon="1.25776">
        <ele>170</ele>
        <time>2020-03-29T15:19:25+02:00</time>
      </trkpt>
      <trkpt lat="43.61866" lon="1.25769">
        <ele>170</ele>
        <time>2020-03-29T15:19:39+02:00</time>
      </trkpt>
      <trkpt lat="43.61872" lon="1.25763">
        <ele>171</ele>
        <time>2020-03-29T15:19:45+02:00</time>
      </trkpt>
      <trkpt lat="43.61879" lon="1.25753">
        <ele>171</ele>
        <time>2020-03-29T15:19:53+02:00</time>
      </trkpt>
      <trkpt lat="43.61895" lon="1.25737">
        <ele>172</ele>
        <time>2020-03-29T15:20:09+02:00</time>
      </trkpt>
      <trkpt lat="43.61919" lon="1.25725">
        <ele>174</ele>
        <time>2020-03-29T15:20:29+02:00</time>
      </trkpt>
      <trkpt lat="43.61943" lon="1.25709">
        <ele>176</ele>
        <time>2020-03-29T15:20:51+02:00</time>
      </trkpt>
      <trkpt lat="43.61963" lon="1.257">
        <ele>177</ele>
        <time>2020-03-29T15:21:08+02:00</time>
      </trkpt>
      <trkpt lat="43.61978" lon="1.25696">
        <ele>178</ele>
        <time>2020-03-29T15:21:20+02:00</time>
      </trkpt>
      <trkpt lat="43.61992" lon="1.25688">
        <ele>178</ele>
        <time>2020-03-29T15:21:32+02:00</time>
      </trkpt>
      <trkpt lat="43.62018" lon="1.25672">
        <ele>176</ele>
        <time>2020-03-29T15:21:54+02:00</time>
      </trkpt>
      <trkpt lat="43.62035" lon="1.25667">
        <ele>176</ele>
        <time>2020-03-29T15:22:09+02:00</time>
      </trkpt>
      <trkpt lat="43.62054" lon="1.25665">
        <ele>177</ele>
        <time>2020-03-29T15:22:24+02:00</time>
      </trkpt>
      <trkpt lat="43.62078" lon="1.25669">
        <ele>177</ele>
        <time>2020-03-29T15:22:43+02:00</time>
      </trkpt>
      <trkpt lat="43.62103" lon="1.25669">
        <ele>177</ele>
        <time>2020-03-29T15:23:03+02:00</time>
      </trkpt>
      <trkpt lat="43.62129" lon="1.25671">
        <ele>178</ele>
        <time>2020-03-29T15:23:24+02:00</time>
      </trkpt>
      <trkpt lat="43.6214" lon="1.25675">
        <ele>179</ele>
        <time>2020-03-29T15:23:33+02:00</time>
      </trkpt>
      <trkpt lat="43.62165" lon="1.25675">
        <ele>179</ele>
        <time>2020-03-29T15:23:53+02:00</time>
      </trkpt>
      <trkpt lat="43.62189" lon="1.25687">
        <ele>180</ele>
        <time>2020-03-29T15:24:13+02:00</time>
      </trkpt>
      <trkpt lat="43.62201" lon="1.25703">
        <ele>180</ele>
        <time>2020-03-29T15:24:27+02:00</time>
      </trkpt>
      <trkpt lat="43.62211" lon="1.25723">
        <ele>181</ele>
        <time>2020-03-29T15:24:41+02:00</time>
      </trkpt>
      <trkpt lat="43.62225" lon="1.25743">
        <ele>181</ele>
        <time>2020-03-29T15:24:57+02:00</time>
      </trkpt>
      <trkpt lat="43.62237" lon="1.25765">
        <ele>182</ele>
        <time>2020-03-29T15:25:13+02:00</time>
      </trkpt>
      <trkpt lat="43.62244" lon="1.25783">
        <ele>182</ele>
        <time>2020-03-29T15:25:25+02:00</time>
      </trkpt>
      <trkpt lat="43.62253" lon="1.25819">
        <ele>184</ele>
        <time>2020-03-29T15:25:47+02:00</time>
      </trkpt>
      <trkpt lat="43.62264" lon="1.25847">
        <ele>185</ele>
        <time>2020-03-29T15:26:06+02:00</time>
      </trkpt>
      <trkpt lat="43.62276" lon="1.25879">
        <ele>185</ele>
        <time>2020-03-29T15:26:27+02:00</time>
      </trkpt>
      <trkpt lat="43.62287" lon="1.25899">
        <ele>186</ele>
        <time>2020-03-29T15:26:41+02:00</time>
      </trkpt>
      <trkpt lat="43.62296" lon="1.25906">
        <ele>186</ele>
        <time>2020-03-29T15:26:49+02:00</time>
      </trkpt>
      <trkpt lat="43.62309" lon="1.25912">
        <ele>186</ele>
        <time>2020-03-29T15:27:00+02:00</time>
      </trkpt>
      <trkpt lat="43.62341" lon="1.25922">
        <ele>185</ele>
        <time>2020-03-29T15:27:27+02:00</time>
      </trkpt>
      <trkpt lat="43.62361" lon="1.25938">
        <ele>185</ele>
        <time>2020-03-29T15:27:45+02:00</time>
      </trkpt>
      <trkpt lat="43.62376" lon="1.25957">
        <ele>185</ele>
        <time>2020-03-29T15:28:02+02:00</time>
      </trkpt>
      <trkpt lat="43.62383" lon="1.25965">
        <ele>186</ele>
        <time>2020-03-29T15:28:09+02:00</time>
      </trkpt>
      <trkpt lat="43.6239" lon="1.25972">
        <ele>186</ele>
        <time>2020-03-29T15:28:16+02:00</time>
      </trkpt>
      <trkpt lat="43.624" lon="1.25976">
        <ele>186</ele>
        <time>2020-03-29T15:28:24+02:00</time>
      </trkpt>
      <trkpt lat="43.62424" lon="1.25989">
        <ele>186</ele>
        <time>2020-03-29T15:28:44+02:00</time>
      </trkpt>
      <trkpt lat="43.62447" lon="1.25998">
        <ele>187</ele>
        <time>2020-03-29T15:29:04+02:00</time>
      </trkpt>
      <trkpt lat="43.62474" lon="1.26008">
        <ele>187</ele>
        <time>2020-03-29T15:29:26+02:00</time>
      </trkpt>
      <trkpt lat="43.62496" lon="1.26021">
        <ele>187</ele>
        <time>2020-03-29T15:29:45+02:00</time>
      </trkpt>
      <trkpt lat="43.62529" lon="1.26033">
        <ele>187</ele>
        <time>2020-03-29T15:30:12+02:00</time>
      </trkpt>
      <trkpt lat="43.62554" lon="1.26043">
        <ele>187</ele>
        <time>2020-03-29T15:30:33+02:00</time>
      </trkpt>
      <trkpt lat="43.62587" lon="1.26057">
        <ele>187</ele>
        <time>2020-03-29T15:31:01+02:00</time>
      </trkpt>
      <trkpt lat="43.62608" lon="1.26065">
        <ele>187</ele>
        <time>2020-03-29T15:31:18+02:00</time>
      </trkpt>
      <trkpt lat="43.62633" lon="1.26074">
        <ele>187</ele>
        <time>2020-03-29T15:31:39+02:00</time>
      </trkpt>
      <trkpt lat="43.62651" lon="1.26081">
        <ele>187</ele>
        <time>2020-03-29T15:31:54+02:00</time>
      </trkpt>
      <trkpt lat="43.62672" lon="1.26084">
        <ele>187</ele>
        <time>2020-03-29T15:32:11+02:00</time>
      </trkpt>
      <trkpt lat="43.62704" lon="1.26082">
        <ele>187</ele>
        <time>2020-03-29T15:32:36+02:00</time>
      </trkpt>
      <trkpt lat="43.62738" lon="1.26085">
        <ele>187</ele>
        <time>2020-03-29T15:33:04+02:00</time>
      </trkpt>
      <trkpt lat="43.62777" lon="1.26083">
        <ele>187</ele>
        <time>2020-03-29T15:33:35+02:00</time>
      </trkpt>
      <trkpt lat="43.62809" lon="1.26086">
        <ele>187</ele>
        <time>2020-03-29T15:34:00+02:00</time>
      </trkpt>
      <trkpt lat="43.6283" lon="1.26084">
        <ele>187</ele>
        <time>2020-03-29T15:34:17+02:00</time>
      </trkpt>
      <trkpt lat="43.62849" lon="1.26077">
        <ele>187</ele>
        <time>2020-03-29T15:34:33+02:00</time>
      </trkpt>
      <trkpt lat="43.62862" lon="1.26062">
        <ele>187</ele>
        <time>2020-03-29T15:34:46+02:00</time>
      </trkpt>
      <trkpt lat="43.62876" lon="1.26041">
        <ele>187</ele>
        <time>2020-03-29T15:35:03+02:00</time>
      </trkpt>
      <trkpt lat="43.62891" lon="1.26023">
        <ele>187</ele>
        <time>2020-03-29T15:35:19+02:00</time>
      </trkpt>
      <trkpt lat="43.62904" lon="1.26014">
        <ele>187</ele>
        <time>2020-03-29T15:35:31+02:00</time>
      </trkpt>
      <trkpt lat="43.6292" lon="1.2602">
        <ele>187</ele>
        <time>2020-03-29T15:35:44+02:00</time>
      </trkpt>
      <trkpt lat="43.62931" lon="1.26031">
        <ele>187</ele>
        <time>2020-03-29T15:35:55+02:00</time>
      </trkpt>
      <trkpt lat="43.62944" lon="1.26042">
        <ele>187</ele>
        <time>2020-03-29T15:36:07+02:00</time>
      </trkpt>
      <trkpt lat="43.62964" lon="1.2606">
        <ele>187</ele>
        <time>2020-03-29T15:36:26+02:00</time>
      </trkpt>
      <trkpt lat="43.62987" lon="1.26083">
        <ele>187</ele>
        <time>2020-03-29T15:36:49+02:00</time>
      </trkpt>
      <trkpt lat="43.63007" lon="1.26103">
        <ele>187</ele>
        <time>2020-03-29T15:37:09+02:00</time>
      </trkpt>
      <trkpt lat="43.63033" lon="1.26125">
        <ele>187</ele>
        <time>2020-03-29T15:37:33+02:00</time>
      </trkpt>
      <trkpt lat="43.63056" lon="1.26149">
        <ele>187</ele>
        <time>2020-03-29T15:37:56+02:00</time>
      </trkpt>
      <trkpt lat="43.6308" lon="1.26171">
        <ele>187</ele>
        <time>2020-03-29T15:38:19+02:00</time>
      </trkpt>
      <trkpt lat="43.63104" lon="1.26194">
        <ele>187</ele>
        <time>2020-03-29T15:38:42+02:00</time>
      </trkpt>
      <trkpt lat="43.63122" lon="1.2621">
        <ele>187</ele>
        <time>2020-03-29T15:39:00+02:00</time>
      </trkpt>
      <trkpt lat="43.63144" lon="1.2623">
        <ele>187</ele>
        <time>2020-03-29T15:39:20+02:00</time>
      </trkpt>
      <trkpt lat="43.63184" lon="1.26276">
        <ele>187</ele>
        <time>2020-03-29T15:40:02+02:00</time>
      </trkpt>
      <trkpt lat="43.63228" lon="1.26339">
        <ele>187</ele>
        <time>2020-03-29T15:40:53+02:00</time>
      </trkpt>
      <trkpt lat="43.63272" lon="1.26392">
        <ele>187</ele>
        <time>2020-03-29T15:41:40+02:00</time>
      </trkpt>
      <trkpt lat="43.63306" lon="1.2644">
        <ele>187</ele>
        <time>2020-03-29T15:42:19+02:00</time>
      </trkpt>
      <trkpt lat="43.63342" lon="1.2648">
        <ele>187</ele>
        <time>2020-03-29T15:42:56+02:00</time>
      </trkpt>
      <trkpt lat="43.6337" lon="1.26516">
        <ele>187</ele>
        <time>2020-03-29T15:43:26+02:00</time>
      </trkpt>
      <trkpt lat="43.63385" lon="1.26532">
        <ele>187</ele>
        <time>2020-03-29T15:43:42+02:00</time>
      </trkpt>
      <trkpt lat="43.63424" lon="1.26432">
        <ele>187</ele>
        <time>2020-03-29T15:44:47+02:00</time>
      </trkpt>
      <trkpt lat="43.63459" lon="1.2635">
        <ele>187</ele>
        <time>2020-03-29T15:45:43+02:00</time>
      </trkpt>
      <trkpt lat="43.63494" lon="1.26265">
        <ele>187</ele>
        <time>2020-03-29T15:46:40+02:00</time>
      </trkpt>
      <trkpt lat="43.63533" lon="1.26189">
        <ele>187</ele>
        <time>2020-03-29T15:47:33+02:00</time>
      </trkpt>
      <trkpt lat="43.63568" lon="1.26124">
        <ele>187</ele>
        <time>2020-03-29T15:48:21+02:00</time>
      </trkpt>
      <trkpt lat="43.63591" lon="1.26069">
        <ele>187</ele>
        <time>2020-03-29T15:48:57+02:00</time>
      </trkpt>
      <trkpt lat="43.63626" lon="1.25974">
        <ele>187</ele>
        <time>2020-03-29T15:49:59+02:00</time>
      </trkpt>
      <trkpt lat="43.63654" lon="1.2589">
        <ele>187</ele>
        <time>2020-03-29T15:50:53+02:00</time>
      </trkpt>
      <trkpt lat="43.63685" lon="1.25815">
        <ele>187</ele>
        <time>2020-03-29T15:51:43+02:00</time>
      </trkpt>
      <trkpt lat="43.63706" lon="1.25763">
        <ele>187</ele>
        <time>2020-03-29T15:52:17+02:00</time>
      </trkpt>
      <trkpt lat="43.63713" lon="1.25715">
        <ele>187</ele>
        <time>2020-03-29T15:52:46+02:00</time>
      </trkpt>
      <trkpt lat="43.63713" lon="1.25657">
        <ele>187</ele>
        <time>2020-03-29T15:53:20+02:00</time>
      </trkpt>
      <trkpt lat="43.63708" lon="1.25604">
        <ele>187</ele>
        <time>2020-03-29T15:53:51+02:00</time>
      </trkpt>
      <trkpt lat="43.6371" lon="1.25534">
        <ele>187</ele>
        <time>2020-03-29T15:54:32+02:00</time>
      </trkpt>
      <trkpt lat="43.63712" lon="1.25487">
        <ele>187</ele>
        <time>2020-03-29T15:54:59+02:00</time>
      </trkpt>
      <trkpt lat="43.63719" lon="1.25406">
        <ele>187</ele>
        <time>2020-03-29T15:55:46+02:00</time>
      </trkpt>
      <trkpt lat="43.63721" lon="1.2537">
        <ele>187</ele>
        <time>2020-03-29T15:56:07+02:00</time>
      </trkpt>
      <trkpt lat="43.6373" lon="1.25319">
        <ele>187</ele>
        <time>2020-03-29T15:56:38+02:00</time>
      </trkpt>
      <trkpt lat="43.63757" lon="1.25277">
        <ele>187</ele>
        <time>2020-03-29T15:57:10+02:00</time>
      </trkpt>
      <trkpt lat="43.63782" lon="1.25216">
        <ele>187</ele>
        <time>2020-03-29T15:57:51+02:00</time>
      </trkpt>
      <trkpt lat="43.63796" lon="1.25173">
        <ele>187</ele>
        <time>2020-03-29T15:58:18+02:00</time>
      </trkpt>
      <trkpt lat="43.63819" lon="1.25134">
        <ele>187</ele>
        <time>2020-03-29T15:58:48+02:00</time>
      </trkpt>
      <trkpt lat="43.6385" lon="1.25092">
        <ele>187</ele>
        <time>2020-03-29T15:59:22+02:00</time>
      </trkpt>
      <trkpt lat="43.63878" lon="1.25128">
        <ele>187</ele>
        <time>2020-03-29T15:59:53+02:00</time>
      </trkpt>
      <trkpt lat="43.63905" lon="1.25179">
        <ele>187</ele>
        <time>2020-03-29T16:00:30+02:00</time>
      </trkpt>
      <trkpt lat="43.6391" lon="1.25213">
        <ele>187</ele>
        <time>2020-03-29T16:00:50+02:00</time>
      </trkpt>
      <trkpt lat="43.63914" lon="1.25277">
        <ele>187</ele>
        <time>2020-03-29T16:01:27+02:00</time>
      </trkpt>
      <trkpt lat="43.63914" lon="1.25364">
        <ele>187</ele>
        <time>2020-03-29T16:02:18+02:00</time>
      </trkpt>
      <trkpt lat="43.63917" lon="1.25423">
        <ele>187</ele>
        <time>2020-03-29T16:02:52+02:00</time>
      </trkpt>
      <trkpt lat="43.63907" lon="1.25504">
        <ele>187</ele>
        <time>2020-03-29T16:03:40+02:00</time>
      </trkpt>
      <trkpt lat="43.63909" lon="1.25579">
        <ele>187</ele>
        <time>2020-03-29T16:04:23+02:00</time>
      </trkpt>
      <trkpt lat="43.63914" lon="1.25665">
        <ele>187</ele>
        <time>2020-03-29T16:05:13+02:00</time>
      </trkpt>
      <trkpt lat="43.63925" lon="1.25744">
        <ele>187</ele>
        <time>2020-03-29T16:06:00+02:00</time>
      </trkpt>
      <trkpt lat="43.63942" lon="1.25794">
        <ele>187</ele>
        <time>2020-03-29T16:06:32+02:00</time>
      </trkpt>
      <trkpt lat="43.63952" lon="1.25836">
        <ele>187</ele>
        <time>2020-03-29T16:06:58+02:00</time>
      </trkpt>
      <trkpt lat="43.63956" lon="1.2587">
        <ele>187</ele>
        <time>2020-03-29T16:07:18+02:00</time>
      </trkpt>
      <trkpt lat="43.63986" lon="1.25928">
        <ele>187</ele>
        <time>2020-03-29T16:07:59+02:00</time>
      </trkpt>
      <trkpt lat="43.64006" lon="1.25965">
        <ele>187</ele>
        <time>2020-03-29T16:08:26+02:00</time>
      </trkpt>
      <trkpt lat="43.64036" lon="1.2601">
        <ele>187</ele>
        <time>2020-03-29T16:09:02+02:00</time>
      </trkpt>
      <trkpt lat="43.64056" lon="1.26039">
        <ele>187</ele>
        <time>2020-03-29T16:09:25+02:00</time>
      </trkpt>
      <trkpt lat="43.64076" lon="1.26072">
        <ele>187</ele>
        <time>2020-03-29T16:09:50+02:00</time>
      </trkpt>
      <trkpt lat="43.64096" lon="1.26127">
        <ele>187</ele>
        <time>2020-03-29T16:10:25+02:00</time>
      </trkpt>
      <trkpt lat="43.64115" lon="1.26178">
        <ele>186</ele>
        <time>2020-03-29T16:10:58+02:00</time>
      </trkpt>
      <trkpt lat="43.64132" lon="1.26202">
        <ele>186</ele>
        <time>2020-03-29T16:11:18+02:00</time>
      </trkpt>
      <trkpt lat="43.6411" lon="1.26239">
        <ele>186</ele>
        <time>2020-03-29T16:11:46+02:00</time>
      </trkpt>
      <trkpt lat="43.64095" lon="1.26278">
        <ele>187</ele>
        <time>2020-03-29T16:12:11+02:00</time>
      </trkpt>
      <trkpt lat="43.64068" lon="1.26319">
        <ele>186</ele>
        <time>2020-03-29T16:12:44+02:00</time>
      </trkpt>
      <trkpt lat="43.64032" lon="1.26365">
        <ele>187</ele>
        <time>2020-03-29T16:13:23+02:00</time>
      </trkpt>
      <trkpt lat="43.63999" lon="1.2641">
        <ele>187</ele>
        <time>2020-03-29T16:14:00+02:00</time>
      </trkpt>
      <trkpt lat="43.6398" lon="1.26468">
        <ele>187</ele>
        <time>2020-03-29T16:14:37+02:00</time>
      </trkpt>
      <trkpt lat="43.63955" lon="1.26538">
        <ele>187</ele>
        <time>2020-03-29T16:15:22+02:00</time>
      </trkpt>
      <trkpt lat="43.63927" lon="1.26604">
        <ele>186</ele>
        <time>2020-03-29T16:16:07+02:00</time>
      </trkpt>
      <trkpt lat="43.63898" lon="1.26675">
        <ele>186</ele>
        <time>2020-03-29T16:16:54+02:00</time>
      </trkpt>
      <trkpt lat="43.63874" lon="1.26735">
        <ele>186</ele>
        <time>2020-03-29T16:17:34+02:00</time>
      </trkpt>
      <trkpt lat="43.63852" lon="1.26778">
        <ele>186</ele>
        <time>2020-03-29T16:18:05+02:00</time>
      </trkpt>
      <trkpt lat="43.63831" lon="1.26827">
        <ele>186</ele>
        <time>2020-03-29T16:18:37+02:00</time>
      </trkpt>
      <trkpt lat="43.63807" lon="1.2689">
        <ele>186</ele>
        <time>2020-03-29T16:19:19+02:00</time>
      </trkpt>
      <trkpt lat="43.63783" lon="1.26949">
        <ele>186</ele>
        <time>2020-03-29T16:19:58+02:00</time>
      </trkpt>
      <trkpt lat="43.63766" lon="1.2701">
        <ele>186</ele>
        <time>2020-03-29T16:20:36+02:00</time>
      </trkpt>
      <trkpt lat="43.6375" lon="1.27073">
        <ele>186</ele>
        <time>2020-03-29T16:21:15+02:00</time>
      </trkpt>
      <trkpt lat="43.63745" lon="1.27127">
        <ele>186</ele>
        <time>2020-03-29T16:21:47+02:00</time>
      </trkpt>
      <trkpt lat="43.63745" lon="1.27187">
        <ele>186</ele>
        <time>2020-03-29T16:22:21+02:00</time>
      </trkpt>
      <trkpt lat="43.63736" lon="1.27212">
        <ele>185</ele>
        <time>2020-03-29T16:22:38+02:00</time>
      </trkpt>
      <trkpt lat="43.63706" lon="1.27253">
        <ele>185</ele>
        <time>2020-03-29T16:23:11+02:00</time>
      </trkpt>
      <trkpt lat="43.63683" lon="1.27289">
        <ele>185</ele>
        <time>2020-03-29T16:23:39+02:00</time>
      </trkpt>
      <trkpt lat="43.63657" lon="1.27321">
        <ele>185</ele>
        <time>2020-03-29T16:24:07+02:00</time>
      </trkpt>
      <trkpt lat="43.63632" lon="1.27356">
        <ele>185</ele>
        <time>2020-03-29T16:24:35+02:00</time>
      </trkpt>
      <trkpt lat="43.63606" lon="1.27387">
        <ele>185</ele>
        <time>2020-03-29T16:25:03+02:00</time>
      </trkpt>
      <trkpt lat="43.63586" lon="1.27415">
        <ele>185</ele>
        <time>2020-03-29T16:25:26+02:00</time>
      </trkpt>
      <trkpt lat="43.6357" lon="1.27438">
        <ele>185</ele>
        <time>2020-03-29T16:25:44+02:00</time>
      </trkpt>
      <trkpt lat="43.63551" lon="1.27466">
        <ele>185</ele>
        <time>2020-03-29T16:26:07+02:00</time>
      </trkpt>
      <trkpt lat="43.63528" lon="1.27496">
        <ele>185</ele>
        <time>2020-03-29T16:26:32+02:00</time>
      </trkpt>
      <trkpt lat="43.63512" lon="1.27521">
        <ele>185</ele>
        <time>2020-03-29T16:26:52+02:00</time>
      </trkpt>
      <trkpt lat="43.63493" lon="1.27549">
        <ele>185</ele>
        <time>2020-03-29T16:27:14+02:00</time>
      </trkpt>
      <trkpt lat="43.63473" lon="1.27579">
        <ele>185</ele>
        <time>2020-03-29T16:27:38+02:00</time>
      </trkpt>
      <trkpt lat="43.6345" lon="1.27609">
        <ele>185</ele>
        <time>2020-03-29T16:28:03+02:00</time>
      </trkpt>
      <trkpt lat="43.6343" lon="1.27638">
        <ele>185</ele>
        <time>2020-03-29T16:28:26+02:00</time>
      </trkpt>
      <trkpt lat="43.63417" lon="1.27665">
        <ele>185</ele>
        <time>2020-03-29T16:28:45+02:00</time>
      </trkpt>
      <trkpt lat="43.63403" lon="1.27692">
        <ele>186</ele>
        <time>2020-03-29T16:29:04+02:00</time>
      </trkpt>
      <trkpt lat="43.63391" lon="1.27716">
        <ele>186</ele>
        <time>2020-03-29T16:29:21+02:00</time>
      </trkpt>
      <trkpt lat="43.63349" lon="1.27689">
        <ele>186</ele>
        <time>2020-03-29T16:29:58+02:00</time>
      </trkpt>
      <trkpt lat="43.63308" lon="1.2766">
        <ele>186</ele>
        <time>2020-03-29T16:30:35+02:00</time>
      </trkpt>
      <trkpt lat="43.63265" lon="1.27624">
        <ele>186</ele>
        <time>2020-03-29T16:31:16+02:00</time>
      </trkpt>
      <trkpt lat="43.6323" lon="1.27587">
        <ele>186</ele>
        <time>2020-03-29T16:31:51+02:00</time>
      </trkpt>
      <trkpt lat="43.63245" lon="1.27553">
        <ele>186</ele>
        <time>2020-03-29T16:32:14+02:00</time>
      </trkpt>
      <trkpt lat="43.632" lon="1.27521">
        <ele>186</ele>
        <time>2020-03-29T16:32:55+02:00</time>
      </trkpt>
      <trkpt lat="43.63157" lon="1.27485">
        <ele>186</ele>
        <time>2020-03-29T16:33:35+02:00</time>
      </trkpt>
      <trkpt lat="43.63111" lon="1.27452">
        <ele>186</ele>
        <time>2020-03-29T16:34:17+02:00</time>
      </trkpt>
      <trkpt lat="43.63105" lon="1.27404">
        <ele>186</ele>
        <time>2020-03-29T16:34:45+02:00</time>
      </trkpt>
      <trkpt lat="43.6306" lon="1.27377">
        <ele>186</ele>
        <time>2020-03-29T16:35:24+02:00</time>
      </trkpt>
      <trkpt lat="43.63014" lon="1.2735">
        <ele>187</ele>
        <time>2020-03-29T16:36:04+02:00</time>
      </trkpt>
      <trkpt lat="43.62983" lon="1.27334">
        <ele>187</ele>
        <time>2020-03-29T16:36:31+02:00</time>
      </trkpt>
      <trkpt lat="43.62946" lon="1.27302">
        <ele>187</ele>
        <time>2020-03-29T16:37:06+02:00</time>
      </trkpt>
      <trkpt lat="43.62908" lon="1.2727">
        <ele>187</ele>
        <time>2020-03-29T16:37:41+02:00</time>
      </trkpt>
      <trkpt lat="43.6287" lon="1.27266">
        <ele>187</ele>
        <time>2020-03-29T16:38:12+02:00</time>
      </trkpt>
      <trkpt lat="43.6282" lon="1.27259">
        <ele>187</ele>
        <time>2020-03-29T16:38:52+02:00</time>
      </trkpt>
      <trkpt lat="43.62774" lon="1.27254">
        <ele>188</ele>
        <time>2020-03-29T16:39:29+02:00</time>
      </trkpt>
      <trkpt lat="43.62732" lon="1.27252">
        <ele>188</ele>
        <time>2020-03-29T16:40:03+02:00</time>
      </trkpt>
      <trkpt lat="43.62696" lon="1.27246">
        <ele>188</ele>
        <time>2020-03-29T16:40:31+02:00</time>
      </trkpt>
      <trkpt lat="43.62667" lon="1.27297">
        <ele>188</ele>
        <time>2020-03-29T16:41:09+02:00</time>
      </trkpt>
      <trkpt lat="43.62639" lon="1.2734">
        <ele>188</ele>
        <time>2020-03-29T16:41:43+02:00</time>
      </trkpt>
      <trkpt lat="43.6261" lon="1.27389">
        <ele>188</ele>
        <time>2020-03-29T16:42:19+02:00</time>
      </trkpt>
      <trkpt lat="43.62595" lon="1.2742">
        <ele>189</ele>
        <time>2020-03-29T16:42:41+02:00</time>
      </trkpt>
      <trkpt lat="43.62568" lon="1.27419">
        <ele>189</ele>
        <time>2020-03-29T16:43:03+02:00</time>
      </trkpt>
      <trkpt lat="43.62538" lon="1.27425">
        <ele>189</ele>
        <time>2020-03-29T16:43:27+02:00</time>
      </trkpt>
      <trkpt lat="43.62524" lon="1.27424">
        <ele>189</ele>
        <time>2020-03-29T16:43:38+02:00</time>
      </trkpt>
      <trkpt lat="43.62519" lon="1.27432">
        <ele>189</ele>
        <time>2020-03-29T16:43:44+02:00</time>
      </trkpt>
      <trkpt lat="43.62492" lon="1.27429">
        <ele>189</ele>
        <time>2020-03-29T16:44:06+02:00</time>
      </trkpt>
      <trkpt lat="43.62468" lon="1.27435">
        <ele>189</ele>
        <time>2020-03-29T16:44:25+02:00</time>
      </trkpt>
      <trkpt lat="43.62444" lon="1.27443">
        <ele>189</ele>
        <time>2020-03-29T16:44:45+02:00</time>
      </trkpt>
      <trkpt lat="43.62456" lon="1.27505">
        <ele>190</ele>
        <time>2020-03-29T16:45:22+02:00</time>
      </trkpt>
      <trkpt lat="43.62474" lon="1.27584">
        <ele>189</ele>
        <time>2020-03-29T16:46:10+02:00</time>
      </trkpt>
      <trkpt lat="43.6248" lon="1.27649">
        <ele>190</ele>
        <time>2020-03-29T16:46:48+02:00</time>
      </trkpt>
      <trkpt lat="43.62486" lon="1.27714">
        <ele>190</ele>
        <time>2020-03-29T16:47:26+02:00</time>
      </trkpt>
      <trkpt lat="43.62465" lon="1.27759">
        <ele>190</ele>
        <time>2020-03-29T16:47:57+02:00</time>
      </trkpt>
      <trkpt lat="43.62445" lon="1.27812">
        <ele>189</ele>
        <time>2020-03-29T16:48:32+02:00</time>
      </trkpt>
      <trkpt lat="43.62424" lon="1.27885">
        <ele>184</ele>
        <time>2020-03-29T16:49:17+02:00</time>
      </trkpt>
      <trkpt lat="43.62423" lon="1.27983">
        <ele>182</ele>
        <time>2020-03-29T16:50:14+02:00</time>
      </trkpt>
      <trkpt lat="43.62432" lon="1.28059">
        <ele>184</ele>
        <time>2020-03-29T16:50:59+02:00</time>
      </trkpt>
      <trkpt lat="43.62416" lon="1.28131">
        <ele>184</ele>
        <time>2020-03-29T16:51:43+02:00</time>
      </trkpt>
      <trkpt lat="43.62399" lon="1.2816">
        <ele>178</ele>
        <time>2020-03-29T16:52:05+02:00</time>
      </trkpt>
      <trkpt lat="43.62355" lon="1.28151">
        <ele>169</ele>
        <time>2020-03-29T16:52:40+02:00</time>
      </trkpt>
      <trkpt lat="43.62334" lon="1.28137">
        <ele>166</ele>
        <time>2020-03-29T16:52:59+02:00</time>
      </trkpt>
      <trkpt lat="43.62312" lon="1.28126">
        <ele>162</ele>
        <time>2020-03-29T16:53:18+02:00</time>
      </trkpt>
      <trkpt lat="43.62304" lon="1.28181">
        <ele>162</ele>
        <time>2020-03-29T16:53:50+02:00</time>
      </trkpt>
      <trkpt lat="43.623" lon="1.28242">
        <ele>161</ele>
        <time>2020-03-29T16:54:26+02:00</time>
      </trkpt>
      <trkpt lat="43.62293" lon="1.28292">
        <ele>160</ele>
        <time>2020-03-29T16:54:56+02:00</time>
      </trkpt>
      <trkpt lat="43.62284" lon="1.28356">
        <ele>158</ele>
        <time>2020-03-29T16:55:33+02:00</time>
      </trkpt>
      <trkpt lat="43.62279" lon="1.28398">
        <ele>157</ele>
        <time>2020-03-29T16:55:58+02:00</time>
      </trkpt>
      <trkpt lat="43.62283" lon="1.28447">
        <ele>156</ele>
        <time>2020-03-29T16:56:27+02:00</time>
      </trkpt>
      <trkpt lat="43.62281" lon="1.28501">
        <ele>155</ele>
        <time>2020-03-29T16:56:58+02:00</time>
      </trkpt>
      <trkpt lat="43.6226" lon="1.28506">
        <ele>155</ele>
        <time>2020-03-29T16:57:15+02:00</time>
      </trkpt>
    </trkseg>
  </trk>
</gpx>